sensor_id;sensor_type;location;lat;lon;timestamp;P1;durP1;ratioP1;P2;durP2;ratioP2
55609;SDS011;41486;52.502;13.486;2022-11-06T00:00:05;6.72;;;4.05;;
55609;SDS011;41486;52.502;13.486;2022-11-06T00:02:34;6.85;;;4.13;;
55609;SDS011;41486;52.502;13.486;2022-11-06T00:05:02;8.07;;;3.85;;
55609;SDS011;41486;52.502;13.486;2022-11-06T00:07:44;5.47;;;3.58;;
55609;SDS011;41486;52.502;13.486;2022-11-06T00:10:12;8.95;;;4.03;;
55609;SDS011;41486;52.502;13.486;2022-11-06T00:12:41;5.13;;;3.63;;
55609;SDS011;41486;52.502;13.486;2022-11-06T00:15:11;8.25;;;3.70;;
55609;SDS011;41486;52.502;13.486;2022-11-06T00:17:39;9.68;;;3.75;;
55609;SDS011;41486;52.502;13.486;2022-11-06T00:20:07;7.53;;;3.58;;
55609;SDS011;41486;52.502;13.486;2022-11-06T00:22:36;5.63;;;3.45;;
55609;SDS011;41486;52.502;13.486;2022-11-06T00:25:05;6.38;;;4.07;;
55609;SDS011;41486;52.502;13.486;2022-11-06T00:27:34;7.78;;;4.07;;
55609;SDS011;41486;52.502;13.486;2022-11-06T00:30:02;9.05;;;4.93;;
55609;SDS011;41486;52.502;13.486;2022-11-06T00:32:32;6.38;;;4.03;;
55609;SDS011;41486;52.502;13.486;2022-11-06T00:35:00;9.50;;;3.88;;
55609;SDS011;41486;52.502;13.486;2022-11-06T00:37:28;6.40;;;3.40;;
55609;SDS011;41486;52.502;13.486;2022-11-06T00:39:55;11.40;;;4.50;;
55609;SDS011;41486;52.502;13.486;2022-11-06T00:42:24;6.55;;;3.45;;
55609;SDS011;41486;52.502;13.486;2022-11-06T00:44:52;5.60;;;3.78;;
55609;SDS011;41486;52.502;13.486;2022-11-06T00:47:20;7.47;;;4.43;;
55609;SDS011;41486;52.502;13.486;2022-11-06T00:49:49;8.85;;;3.83;;
55609;SDS011;41486;52.502;13.486;2022-11-06T00:52:17;8.77;;;3.90;;
55609;SDS011;41486;52.502;13.486;2022-11-06T00:54:45;4.70;;;2.92;;
55609;SDS011;41486;52.502;13.486;2022-11-06T00:57:13;7.30;;;3.60;;
55609;SDS011;41486;52.502;13.486;2022-11-06T00:59:40;5.22;;;3.30;;
55609;SDS011;41486;52.502;13.486;2022-11-06T01:02:08;5.35;;;3.45;;
55609;SDS011;41486;52.502;13.486;2022-11-06T01:04:36;6.45;;;3.85;;
55609;SDS011;41486;52.502;13.486;2022-11-06T01:07:05;6.72;;;3.58;;
55609;SDS011;41486;52.502;13.486;2022-11-06T01:09:33;4.53;;;2.88;;
55609;SDS011;41486;52.502;13.486;2022-11-06T01:12:01;5.07;;;3.13;;
55609;SDS011;41486;52.502;13.486;2022-11-06T01:14:39;6.40;;;3.88;;
55609;SDS011;41486;52.502;13.486;2022-11-06T01:17:08;7.15;;;3.90;;
55609;SDS011;41486;52.502;13.486;2022-11-06T01:19:36;9.70;;;3.85;;
55609;SDS011;41486;52.502;13.486;2022-11-06T01:22:04;5.82;;;3.55;;
55609;SDS011;41486;52.502;13.486;2022-11-06T01:24:33;7.95;;;3.72;;
55609;SDS011;41486;52.502;13.486;2022-11-06T01:27:01;6.07;;;3.58;;
55609;SDS011;41486;52.502;13.486;2022-11-06T01:29:49;5.63;;;3.38;;
55609;SDS011;41486;52.502;13.486;2022-11-06T01:32:17;10.23;;;3.72;;
55609;SDS011;41486;52.502;13.486;2022-11-06T01:34:44;4.53;;;3.47;;
55609;SDS011;41486;52.502;13.486;2022-11-06T01:37:14;8.30;;;4.05;;
55609;SDS011;41486;52.502;13.486;2022-11-06T01:39:42;6.63;;;3.65;;
55609;SDS011;41486;52.502;13.486;2022-11-06T01:42:10;6.47;;;4.15;;
55609;SDS011;41486;52.502;13.486;2022-11-06T01:50:04;7.93;;;4.07;;
55609;SDS011;41486;52.502;13.486;2022-11-06T01:52:36;12.82;;;3.40;;
55609;SDS011;41486;52.502;13.486;2022-11-06T01:55:06;5.22;;;3.22;;
55609;SDS011;41486;52.502;13.486;2022-11-06T01:57:36;7.00;;;4.00;;
55609;SDS011;41486;52.502;13.486;2022-11-06T02:00:06;5.85;;;3.92;;
55609;SDS011;41486;52.502;13.486;2022-11-06T02:02:34;6.60;;;3.92;;
55609;SDS011;41486;52.502;13.486;2022-11-06T02:05:04;7.60;;;3.75;;
55609;SDS011;41486;52.502;13.486;2022-11-06T02:07:32;8.13;;;3.72;;
55609;SDS011;41486;52.502;13.486;2022-11-06T02:10:02;5.97;;;4.15;;
55609;SDS011;41486;52.502;13.486;2022-11-06T02:12:35;6.47;;;3.15;;
55609;SDS011;41486;52.502;13.486;2022-11-06T02:15:11;7.50;;;3.63;;
55609;SDS011;41486;52.502;13.486;2022-11-06T02:17:51;11.48;;;5.15;;
55609;SDS011;41486;52.502;13.486;2022-11-06T02:20:43;7.97;;;4.00;;
55609;SDS011;41486;52.502;13.486;2022-11-06T02:23:24;9.43;;;4.55;;
55609;SDS011;41486;52.502;13.486;2022-11-06T02:26:09;6.65;;;4.40;;
55609;SDS011;41486;52.502;13.486;2022-11-06T02:28:51;6.40;;;3.88;;
55609;SDS011;41486;52.502;13.486;2022-11-06T02:31:24;8.45;;;4.05;;
55609;SDS011;41486;52.502;13.486;2022-11-06T02:33:56;4.47;;;3.30;;
55609;SDS011;41486;52.502;13.486;2022-11-06T02:36:29;7.55;;;3.83;;
55609;SDS011;41486;52.502;13.486;2022-11-06T02:39:02;8.30;;;4.28;;
55609;SDS011;41486;52.502;13.486;2022-11-06T02:41:34;5.90;;;4.05;;
55609;SDS011;41486;52.502;13.486;2022-11-06T02:44:07;5.43;;;3.90;;
55609;SDS011;41486;52.502;13.486;2022-11-06T02:46:39;6.20;;;3.55;;
55609;SDS011;41486;52.502;13.486;2022-11-06T02:49:11;5.63;;;3.67;;
55609;SDS011;41486;52.502;13.486;2022-11-06T02:51:42;7.15;;;3.55;;
55609;SDS011;41486;52.502;13.486;2022-11-06T02:54:14;7.45;;;3.55;;
55609;SDS011;41486;52.502;13.486;2022-11-06T02:56:46;5.97;;;3.70;;
55609;SDS011;41486;52.502;13.486;2022-11-06T02:59:19;7.05;;;3.83;;
55609;SDS011;41486;52.502;13.486;2022-11-06T03:01:50;6.00;;;3.25;;
55609;SDS011;41486;52.502;13.486;2022-11-06T03:04:23;4.30;;;3.58;;
55609;SDS011;41486;52.502;13.486;2022-11-06T03:06:58;7.53;;;4.20;;
55609;SDS011;41486;52.502;13.486;2022-11-06T03:09:31;5.93;;;3.92;;
55609;SDS011;41486;52.502;13.486;2022-11-06T03:12:01;6.57;;;3.97;;
55609;SDS011;41486;52.502;13.486;2022-11-06T03:14:42;7.15;;;4.43;;
55609;SDS011;41486;52.502;13.486;2022-11-06T03:17:17;7.80;;;2.95;;
55609;SDS011;41486;52.502;13.486;2022-11-06T03:19:51;7.25;;;4.50;;
55609;SDS011;41486;52.502;13.486;2022-11-06T03:22:23;7.93;;;3.55;;
55609;SDS011;41486;52.502;13.486;2022-11-06T03:24:56;10.23;;;4.55;;
55609;SDS011;41486;52.502;13.486;2022-11-06T03:27:31;8.80;;;3.83;;
55609;SDS011;41486;52.502;13.486;2022-11-06T03:30:03;7.50;;;4.25;;
55609;SDS011;41486;52.502;13.486;2022-11-06T03:32:42;5.10;;;3.40;;
55609;SDS011;41486;52.502;13.486;2022-11-06T03:35:16;8.77;;;3.80;;
55609;SDS011;41486;52.502;13.486;2022-11-06T03:37:51;4.13;;;3.08;;
55609;SDS011;41486;52.502;13.486;2022-11-06T03:40:25;5.65;;;3.70;;
55609;SDS011;41486;52.502;13.486;2022-11-06T03:42:56;6.47;;;3.90;;
55609;SDS011;41486;52.502;13.486;2022-11-06T03:45:30;9.80;;;3.58;;
55609;SDS011;41486;52.502;13.486;2022-11-06T03:48:00;6.53;;;3.58;;
55609;SDS011;41486;52.502;13.486;2022-11-06T03:50:34;6.82;;;4.00;;
55609;SDS011;41486;52.502;13.486;2022-11-06T03:53:05;9.00;;;3.97;;
55609;SDS011;41486;52.502;13.486;2022-11-06T03:55:41;9.25;;;3.97;;
55609;SDS011;41486;52.502;13.486;2022-11-06T03:58:15;7.18;;;3.97;;
55609;SDS011;41486;52.502;13.486;2022-11-06T04:00:48;5.80;;;3.63;;
55609;SDS011;41486;52.502;13.486;2022-11-06T04:03:20;7.53;;;4.03;;
55609;SDS011;41486;52.502;13.486;2022-11-06T04:05:52;7.68;;;3.67;;
55609;SDS011;41486;52.502;13.486;2022-11-06T04:08:23;12.73;;;5.00;;
55609;SDS011;41486;52.502;13.486;2022-11-06T04:11:13;7.93;;;4.20;;
55609;SDS011;41486;52.502;13.486;2022-11-06T04:14:02;11.50;;;5.07;;
55609;SDS011;41486;52.502;13.486;2022-11-06T04:16:35;10.88;;;3.97;;
55609;SDS011;41486;52.502;13.486;2022-11-06T04:19:08;6.35;;;3.25;;
55609;SDS011;41486;52.502;13.486;2022-11-06T04:21:51;8.82;;;3.80;;
55609;SDS011;41486;52.502;13.486;2022-11-06T04:24:30;7.63;;;4.05;;
55609;SDS011;41486;52.502;13.486;2022-11-06T04:27:23;6.38;;;3.70;;
55609;SDS011;41486;52.502;13.486;2022-11-06T04:30:01;7.22;;;4.95;;
55609;SDS011;41486;52.502;13.486;2022-11-06T04:35:41;10.20;;;4.25;;
55609;SDS011;41486;52.502;13.486;2022-11-06T04:38:20;7.35;;;4.25;;
55609;SDS011;41486;52.502;13.486;2022-11-06T04:40:56;8.98;;;4.10;;
55609;SDS011;41486;52.502;13.486;2022-11-06T04:43:29;10.23;;;3.92;;
55609;SDS011;41486;52.502;13.486;2022-11-06T04:46:06;8.65;;;4.07;;
55609;SDS011;41486;52.502;13.486;2022-11-06T04:48:38;5.50;;;3.72;;
55609;SDS011;41486;52.502;13.486;2022-11-06T04:51:08;8.63;;;4.53;;
55609;SDS011;41486;52.502;13.486;2022-11-06T04:53:37;12.10;;;4.00;;
55609;SDS011;41486;52.502;13.486;2022-11-06T04:56:08;9.13;;;4.63;;
55609;SDS011;41486;52.502;13.486;2022-11-06T04:58:38;7.15;;;4.03;;
55609;SDS011;41486;52.502;13.486;2022-11-06T05:01:05;6.95;;;4.78;;
55609;SDS011;41486;52.502;13.486;2022-11-06T05:03:34;8.30;;;3.75;;
55609;SDS011;41486;52.502;13.486;2022-11-06T05:06:05;11.55;;;5.32;;
55609;SDS011;41486;52.502;13.486;2022-11-06T05:08:33;6.43;;;4.05;;
55609;SDS011;41486;52.502;13.486;2022-11-06T05:11:01;8.25;;;4.43;;
55609;SDS011;41486;52.502;13.486;2022-11-06T05:13:29;10.85;;;4.50;;
55609;SDS011;41486;52.502;13.486;2022-11-06T05:15:57;6.70;;;3.80;;
55609;SDS011;41486;52.502;13.486;2022-11-06T05:18:26;6.70;;;4.10;;
55609;SDS011;41486;52.502;13.486;2022-11-06T05:20:57;9.27;;;5.57;;
55609;SDS011;41486;52.502;13.486;2022-11-06T05:23:41;6.30;;;3.85;;
55609;SDS011;41486;52.502;13.486;2022-11-06T05:26:09;8.65;;;4.20;;
55609;SDS011;41486;52.502;13.486;2022-11-06T05:28:36;6.18;;;3.85;;
55609;SDS011;41486;52.502;13.486;2022-11-06T05:31:04;8.02;;;4.10;;
55609;SDS011;41486;52.502;13.486;2022-11-06T05:33:32;7.53;;;4.57;;
55609;SDS011;41486;52.502;13.486;2022-11-06T05:36:00;12.25;;;4.65;;
55609;SDS011;41486;52.502;13.486;2022-11-06T05:38:28;7.53;;;4.28;;
55609;SDS011;41486;52.502;13.486;2022-11-06T05:40:57;7.55;;;3.75;;
55609;SDS011;41486;52.502;13.486;2022-11-06T05:43:25;6.55;;;4.60;;
55609;SDS011;41486;52.502;13.486;2022-11-06T05:45:53;7.07;;;3.75;;
55609;SDS011;41486;52.502;13.486;2022-11-06T05:48:21;7.15;;;4.60;;
55609;SDS011;41486;52.502;13.486;2022-11-06T05:50:49;9.18;;;5.40;;
55609;SDS011;41486;52.502;13.486;2022-11-06T05:53:17;6.03;;;3.83;;
55609;SDS011;41486;52.502;13.486;2022-11-06T05:55:45;8.85;;;3.90;;
55609;SDS011;41486;52.502;13.486;2022-11-06T05:58:14;6.43;;;3.75;;
55609;SDS011;41486;52.502;13.486;2022-11-06T06:00:42;8.45;;;3.45;;
55609;SDS011;41486;52.502;13.486;2022-11-06T06:03:10;7.55;;;4.40;;
55609;SDS011;41486;52.502;13.486;2022-11-06T06:05:38;7.00;;;4.30;;
55609;SDS011;41486;52.502;13.486;2022-11-06T06:08:06;5.95;;;4.00;;
55609;SDS011;41486;52.502;13.486;2022-11-06T06:10:34;7.93;;;4.20;;
55609;SDS011;41486;52.502;13.486;2022-11-06T06:13:01;7.57;;;4.22;;
55609;SDS011;41486;52.502;13.486;2022-11-06T06:15:31;5.80;;;3.97;;
55609;SDS011;41486;52.502;13.486;2022-11-06T06:17:58;14.10;;;4.32;;
55609;SDS011;41486;52.502;13.486;2022-11-06T06:20:26;8.40;;;4.03;;
55609;SDS011;41486;52.502;13.486;2022-11-06T06:22:54;6.72;;;4.07;;
55609;SDS011;41486;52.502;13.486;2022-11-06T06:25:23;6.55;;;4.22;;
55609;SDS011;41486;52.502;13.486;2022-11-06T06:27:51;7.05;;;4.63;;
55609;SDS011;41486;52.502;13.486;2022-11-06T06:30:19;10.40;;;5.05;;
55609;SDS011;41486;52.502;13.486;2022-11-06T06:32:49;8.88;;;4.90;;
55609;SDS011;41486;52.502;13.486;2022-11-06T06:35:18;7.22;;;4.47;;
55609;SDS011;41486;52.502;13.486;2022-11-06T06:37:49;6.57;;;4.20;;
55609;SDS011;41486;52.502;13.486;2022-11-06T06:40:19;8.57;;;4.95;;
55609;SDS011;41486;52.502;13.486;2022-11-06T06:42:48;8.65;;;5.22;;
55609;SDS011;41486;52.502;13.486;2022-11-06T06:45:16;9.32;;;4.53;;
55609;SDS011;41486;52.502;13.486;2022-11-06T06:47:44;11.73;;;4.60;;
55609;SDS011;41486;52.502;13.486;2022-11-06T06:50:13;9.55;;;5.88;;
55609;SDS011;41486;52.502;13.486;2022-11-06T06:52:41;8.65;;;4.85;;
55609;SDS011;41486;52.502;13.486;2022-11-06T06:55:09;13.95;;;8.30;;
55609;SDS011;41486;52.502;13.486;2022-11-06T06:57:37;8.25;;;4.70;;
55609;SDS011;41486;52.502;13.486;2022-11-06T07:00:05;8.63;;;5.22;;
55609;SDS011;41486;52.502;13.486;2022-11-06T07:02:33;7.40;;;4.05;;
55609;SDS011;41486;52.502;13.486;2022-11-06T07:05:01;7.13;;;4.03;;
55609;SDS011;41486;52.502;13.486;2022-11-06T07:07:31;9.00;;;4.15;;
55609;SDS011;41486;52.502;13.486;2022-11-06T07:09:59;8.27;;;4.65;;
55609;SDS011;41486;52.502;13.486;2022-11-06T07:12:30;10.75;;;5.35;;
55609;SDS011;41486;52.502;13.486;2022-11-06T07:14:58;7.35;;;4.80;;
55609;SDS011;41486;52.502;13.486;2022-11-06T07:17:26;6.80;;;4.32;;
55609;SDS011;41486;52.502;13.486;2022-11-06T07:19:54;7.65;;;5.05;;
55609;SDS011;41486;52.502;13.486;2022-11-06T07:22:24;7.28;;;4.70;;
55609;SDS011;41486;52.502;13.486;2022-11-06T07:25:03;13.02;;;5.60;;
55609;SDS011;41486;52.502;13.486;2022-11-06T07:27:32;10.82;;;5.28;;
55609;SDS011;41486;52.502;13.486;2022-11-06T07:30:00;6.85;;;4.35;;
55609;SDS011;41486;52.502;13.486;2022-11-06T07:32:28;7.88;;;4.65;;
55609;SDS011;41486;52.502;13.486;2022-11-06T07:34:56;5.72;;;4.38;;
55609;SDS011;41486;52.502;13.486;2022-11-06T07:37:24;6.07;;;4.32;;
55609;SDS011;41486;52.502;13.486;2022-11-06T07:39:54;8.18;;;4.78;;
55609;SDS011;41486;52.502;13.486;2022-11-06T07:42:23;7.43;;;5.43;;
55609;SDS011;41486;52.502;13.486;2022-11-06T07:44:59;7.10;;;4.38;;
55609;SDS011;41486;52.502;13.486;2022-11-06T07:47:28;7.38;;;4.55;;
55609;SDS011;41486;52.502;13.486;2022-11-06T07:49:56;6.78;;;4.20;;
55609;SDS011;41486;52.502;13.486;2022-11-06T07:52:25;8.20;;;4.57;;
55609;SDS011;41486;52.502;13.486;2022-11-06T07:54:53;8.93;;;5.07;;
55609;SDS011;41486;52.502;13.486;2022-11-06T07:57:21;7.25;;;4.45;;
55609;SDS011;41486;52.502;13.486;2022-11-06T07:59:50;11.40;;;4.85;;
55609;SDS011;41486;52.502;13.486;2022-11-06T08:02:18;6.15;;;4.65;;
55609;SDS011;41486;52.502;13.486;2022-11-06T08:04:46;10.23;;;4.65;;
55609;SDS011;41486;52.502;13.486;2022-11-06T08:07:14;7.03;;;3.97;;
55609;SDS011;41486;52.502;13.486;2022-11-06T08:09:42;6.43;;;4.63;;
55609;SDS011;41486;52.502;13.486;2022-11-06T08:12:09;5.70;;;3.83;;
55609;SDS011;41486;52.502;13.486;2022-11-06T08:14:39;9.55;;;4.60;;
55609;SDS011;41486;52.502;13.486;2022-11-06T08:17:09;7.95;;;3.88;;
55609;SDS011;41486;52.502;13.486;2022-11-06T08:19:36;7.35;;;5.13;;
55609;SDS011;41486;52.502;13.486;2022-11-06T08:22:04;9.00;;;4.80;;
55609;SDS011;41486;52.502;13.486;2022-11-06T08:24:32;10.05;;;4.57;;
55609;SDS011;41486;52.502;13.486;2022-11-06T08:27:00;6.60;;;3.85;;
55609;SDS011;41486;52.502;13.486;2022-11-06T08:29:28;5.60;;;4.00;;
55609;SDS011;41486;52.502;13.486;2022-11-06T08:31:56;5.47;;;3.97;;
55609;SDS011;41486;52.502;13.486;2022-11-06T08:34:25;10.57;;;3.85;;
55609;SDS011;41486;52.502;13.486;2022-11-06T08:36:53;6.30;;;4.20;;
55609;SDS011;41486;52.502;13.486;2022-11-06T08:39:21;7.68;;;5.65;;
55609;SDS011;41486;52.502;13.486;2022-11-06T08:41:49;8.20;;;4.43;;
55609;SDS011;41486;52.502;13.486;2022-11-06T08:44:16;8.95;;;4.47;;
55609;SDS011;41486;52.502;13.486;2022-11-06T08:46:44;7.45;;;4.78;;
55609;SDS011;41486;52.502;13.486;2022-11-06T08:49:17;7.88;;;4.00;;
55609;SDS011;41486;52.502;13.486;2022-11-06T08:51:47;7.30;;;4.20;;
55609;SDS011;41486;52.502;13.486;2022-11-06T08:54:15;5.50;;;3.58;;
55609;SDS011;41486;52.502;13.486;2022-11-06T08:56:43;7.78;;;4.47;;
55609;SDS011;41486;52.502;13.486;2022-11-06T08:59:11;7.18;;;3.92;;
55609;SDS011;41486;52.502;13.486;2022-11-06T09:01:39;7.28;;;4.10;;
55609;SDS011;41486;52.502;13.486;2022-11-06T09:04:07;8.57;;;4.18;;
55609;SDS011;41486;52.502;13.486;2022-11-06T09:06:34;7.85;;;4.57;;
55609;SDS011;41486;52.502;13.486;2022-11-06T09:09:04;8.05;;;4.45;;
55609;SDS011;41486;52.502;13.486;2022-11-06T09:11:32;7.00;;;4.13;;
55609;SDS011;41486;52.502;13.486;2022-11-06T09:14:00;5.13;;;3.92;;
55609;SDS011;41486;52.502;13.486;2022-11-06T09:16:27;6.47;;;3.85;;
55609;SDS011;41486;52.502;13.486;2022-11-06T09:19:02;9.25;;;4.15;;
55609;SDS011;41486;52.502;13.486;2022-11-06T09:21:30;5.80;;;3.92;;
55609;SDS011;41486;52.502;13.486;2022-11-06T09:23:58;7.35;;;4.07;;
55609;SDS011;41486;52.502;13.486;2022-11-06T09:26:27;6.78;;;3.53;;
55609;SDS011;41486;52.502;13.486;2022-11-06T09:28:55;6.25;;;4.30;;
55609;SDS011;41486;52.502;13.486;2022-11-06T09:31:23;5.10;;;3.22;;
55609;SDS011;41486;52.502;13.486;2022-11-06T09:33:50;5.72;;;3.20;;
55609;SDS011;41486;52.502;13.486;2022-11-06T09:36:19;5.05;;;3.88;;
55609;SDS011;41486;52.502;13.486;2022-11-06T09:38:47;4.80;;;3.20;;
55609;SDS011;41486;52.502;13.486;2022-11-06T09:41:17;5.28;;;3.00;;
55609;SDS011;41486;52.502;13.486;2022-11-06T09:43:55;5.75;;;3.42;;
55609;SDS011;41486;52.502;13.486;2022-11-06T09:46:34;5.13;;;3.75;;
55609;SDS011;41486;52.502;13.486;2022-11-06T09:49:06;5.95;;;3.75;;
55609;SDS011;41486;52.502;13.486;2022-11-06T09:51:44;4.47;;;3.35;;
55609;SDS011;41486;52.502;13.486;2022-11-06T09:54:16;5.75;;;3.25;;
55609;SDS011;41486;52.502;13.486;2022-11-06T09:56:48;5.20;;;3.28;;
55609;SDS011;41486;52.502;13.486;2022-11-06T09:59:22;4.30;;;2.78;;
55609;SDS011;41486;52.502;13.486;2022-11-06T10:01:51;5.90;;;3.17;;
55609;SDS011;41486;52.502;13.486;2022-11-06T10:04:27;7.18;;;3.28;;
55609;SDS011;41486;52.502;13.486;2022-11-06T10:07:08;4.18;;;2.72;;
55609;SDS011;41486;52.502;13.486;2022-11-06T10:09:45;3.80;;;2.75;;
55609;SDS011;41486;52.502;13.486;2022-11-06T10:12:15;6.40;;;2.95;;
55609;SDS011;41486;52.502;13.486;2022-11-06T10:14:55;5.53;;;3.40;;
55609;SDS011;41486;52.502;13.486;2022-11-06T10:17:34;4.50;;;3.17;;
55609;SDS011;41486;52.502;13.486;2022-11-06T10:20:11;5.32;;;3.15;;
55609;SDS011;41486;52.502;13.486;2022-11-06T10:22:57;5.65;;;2.97;;
55609;SDS011;41486;52.502;13.486;2022-11-06T10:25:38;3.67;;;2.70;;
55609;SDS011;41486;52.502;13.486;2022-11-06T10:28:13;6.80;;;3.17;;
55609;SDS011;41486;52.502;13.486;2022-11-06T10:30:58;5.03;;;2.78;;
55609;SDS011;41486;52.502;13.486;2022-11-06T10:33:37;5.68;;;2.60;;
55609;SDS011;41486;52.502;13.486;2022-11-06T10:36:15;5.65;;;3.15;;
55609;SDS011;41486;52.502;13.486;2022-11-06T10:38:46;5.03;;;2.72;;
55609;SDS011;41486;52.502;13.486;2022-11-06T10:41:19;5.63;;;2.78;;
55609;SDS011;41486;52.502;13.486;2022-11-06T10:43:50;3.70;;;2.50;;
55609;SDS011;41486;52.502;13.486;2022-11-06T10:46:25;6.93;;;3.63;;
55609;SDS011;41486;52.502;13.486;2022-11-06T10:48:57;4.65;;;3.20;;
55609;SDS011;41486;52.502;13.486;2022-11-06T10:51:30;4.72;;;2.97;;
55609;SDS011;41486;52.502;13.486;2022-11-06T10:54:12;4.45;;;2.83;;
55609;SDS011;41486;52.502;13.486;2022-11-06T10:56:56;5.20;;;2.90;;
55609;SDS011;41486;52.502;13.486;2022-11-06T10:59:45;4.40;;;2.90;;
55609;SDS011;41486;52.502;13.486;2022-11-06T11:02:20;3.95;;;3.30;;
55609;SDS011;41486;52.502;13.486;2022-11-06T11:04:53;4.28;;;2.58;;
55609;SDS011;41486;52.502;13.486;2022-11-06T11:07:24;4.47;;;2.78;;
55609;SDS011;41486;52.502;13.486;2022-11-06T11:09:55;6.53;;;2.85;;
55609;SDS011;41486;52.502;13.486;2022-11-06T11:12:24;3.00;;;2.50;;
55609;SDS011;41486;52.502;13.486;2022-11-06T11:15:04;3.15;;;2.25;;
55609;SDS011;41486;52.502;13.486;2022-11-06T11:17:40;5.22;;;3.20;;
55609;SDS011;41486;52.502;13.486;2022-11-06T11:20:29;8.68;;;3.20;;
55609;SDS011;41486;52.502;13.486;2022-11-06T11:23:05;3.10;;;2.35;;
55609;SDS011;41486;52.502;13.486;2022-11-06T11:25:40;4.45;;;2.40;;
55609;SDS011;41486;52.502;13.486;2022-11-06T11:28:20;4.88;;;2.65;;
55609;SDS011;41486;52.502;13.486;2022-11-06T11:30:55;6.43;;;2.83;;
55609;SDS011;41486;52.502;13.486;2022-11-06T11:33:30;4.03;;;2.42;;
55609;SDS011;41486;52.502;13.486;2022-11-06T11:35:59;4.65;;;2.53;;
55609;SDS011;41486;52.502;13.486;2022-11-06T11:38:28;4.78;;;2.60;;
55609;SDS011;41486;52.502;13.486;2022-11-06T11:41:04;5.53;;;2.28;;
55609;SDS011;41486;52.502;13.486;2022-11-06T11:43:34;5.38;;;2.58;;
55609;SDS011;41486;52.502;13.486;2022-11-06T11:46:16;4.25;;;2.75;;
55609;SDS011;41486;52.502;13.486;2022-11-06T11:48:48;3.90;;;2.60;;
55609;SDS011;41486;52.502;13.486;2022-11-06T11:51:24;3.60;;;2.63;;
55609;SDS011;41486;52.502;13.486;2022-11-06T11:53:56;3.80;;;2.25;;
55609;SDS011;41486;52.502;13.486;2022-11-06T11:56:28;2.63;;;2.05;;
55609;SDS011;41486;52.502;13.486;2022-11-06T11:59:17;4.38;;;2.47;;
55609;SDS011;41486;52.502;13.486;2022-11-06T12:01:48;4.65;;;2.65;;
55609;SDS011;41486;52.502;13.486;2022-11-06T12:04:20;3.53;;;2.30;;
55609;SDS011;41486;52.502;13.486;2022-11-06T12:09:27;5.90;;;2.80;;
55609;SDS011;41486;52.502;13.486;2022-11-06T12:11:59;3.00;;;2.40;;
55609;SDS011;41486;52.502;13.486;2022-11-06T12:14:29;4.07;;;2.28;;
55609;SDS011;41486;52.502;13.486;2022-11-06T12:17:08;3.60;;;2.50;;
55609;SDS011;41486;52.502;13.486;2022-11-06T12:19:43;2.80;;;2.35;;
55609;SDS011;41486;52.502;13.486;2022-11-06T12:22:17;3.10;;;1.98;;
55609;SDS011;41486;52.502;13.486;2022-11-06T12:24:53;3.45;;;2.28;;
55609;SDS011;41486;52.502;13.486;2022-11-06T12:27:26;4.37;;;2.50;;
55609;SDS011;41486;52.502;13.486;2022-11-06T12:30:03;4.00;;;1.95;;
55609;SDS011;41486;52.502;13.486;2022-11-06T12:32:39;4.57;;;2.27;;
55609;SDS011;41486;52.502;13.486;2022-11-06T12:35:19;2.20;;;1.67;;
55609;SDS011;41486;52.502;13.486;2022-11-06T12:37:59;3.15;;;2.45;;
55609;SDS011;41486;52.502;13.486;2022-11-06T12:40:34;2.88;;;1.60;;
55609;SDS011;41486;52.502;13.486;2022-11-06T12:43:13;2.53;;;1.47;;
55609;SDS011;41486;52.502;13.486;2022-11-06T12:45:51;2.40;;;1.77;;
55609;SDS011;41486;52.502;13.486;2022-11-06T12:48:28;3.28;;;1.98;;
55609;SDS011;41486;52.502;13.486;2022-11-06T12:51:10;2.08;;;1.70;;
55609;SDS011;41486;52.502;13.486;2022-11-06T12:53:47;2.47;;;1.83;;
55609;SDS011;41486;52.502;13.486;2022-11-06T12:56:25;4.82;;;2.20;;
55609;SDS011;41486;52.502;13.486;2022-11-06T12:59:04;1.95;;;1.70;;
55609;SDS011;41486;52.502;13.486;2022-11-06T13:01:46;3.70;;;2.05;;
55609;SDS011;41486;52.502;13.486;2022-11-06T13:04:27;2.33;;;1.60;;
55609;SDS011;41486;52.502;13.486;2022-11-06T13:07:23;3.08;;;1.95;;
55609;SDS011;41486;52.502;13.486;2022-11-06T13:12:53;2.65;;;1.85;;
55609;SDS011;41486;52.502;13.486;2022-11-06T13:15:37;3.38;;;2.42;;
55609;SDS011;41486;52.502;13.486;2022-11-06T13:18:16;2.75;;;1.50;;
55609;SDS011;41486;52.502;13.486;2022-11-06T13:20:51;3.50;;;1.75;;
55609;SDS011;41486;52.502;13.486;2022-11-06T13:23:25;2.58;;;1.42;;
55609;SDS011;41486;52.502;13.486;2022-11-06T13:25:57;4.30;;;2.92;;
55609;SDS011;41486;52.502;13.486;2022-11-06T13:28:33;2.95;;;2.58;;
55609;SDS011;41486;52.502;13.486;2022-11-06T13:31:07;1.70;;;1.50;;
55609;SDS011;41486;52.502;13.486;2022-11-06T13:33:38;1.60;;;1.25;;
55609;SDS011;41486;52.502;13.486;2022-11-06T13:36:10;3.85;;;1.92;;
55609;SDS011;41486;52.502;13.486;2022-11-06T13:38:50;1.65;;;1.48;;
55609;SDS011;41486;52.502;13.486;2022-11-06T13:41:38;4.03;;;1.48;;
55609;SDS011;41486;52.502;13.486;2022-11-06T13:44:08;3.72;;;1.90;;
55609;SDS011;41486;52.502;13.486;2022-11-06T13:46:48;3.15;;;1.38;;
55609;SDS011;41486;52.502;13.486;2022-11-06T13:49:27;1.55;;;1.40;;
55609;SDS011;41486;52.502;13.486;2022-11-06T13:52:07;2.40;;;1.23;;
55609;SDS011;41486;52.502;13.486;2022-11-06T13:54:44;4.60;;;1.67;;
55609;SDS011;41486;52.502;13.486;2022-11-06T13:57:39;2.20;;;1.55;;
55609;SDS011;41486;52.502;13.486;2022-11-06T14:00:22;4.60;;;1.77;;
55609;SDS011;41486;52.502;13.486;2022-11-06T14:02:58;2.25;;;1.70;;
55609;SDS011;41486;52.502;13.486;2022-11-06T14:05:51;1.63;;;1.40;;
55609;SDS011;41486;52.502;13.486;2022-11-06T14:08:26;4.78;;;1.48;;
55609;SDS011;41486;52.502;13.486;2022-11-06T14:11:11;12.45;;;7.68;;
55609;SDS011;41486;52.502;13.486;2022-11-06T14:13:57;2.70;;;1.98;;
55609;SDS011;41486;52.502;13.486;2022-11-06T14:16:30;2.28;;;1.65;;
55609;SDS011;41486;52.502;13.486;2022-11-06T14:19:03;2.78;;;1.20;;
55609;SDS011;41486;52.502;13.486;2022-11-06T14:21:45;4.30;;;1.65;;
55609;SDS011;41486;52.502;13.486;2022-11-06T14:27:08;1.17;;;1.00;;
55609;SDS011;41486;52.502;13.486;2022-11-06T14:32:39;1.80;;;1.45;;
55609;SDS011;41486;52.502;13.486;2022-11-06T14:44:26;1.90;;;1.38;;
55609;SDS011;41486;52.502;13.486;2022-11-06T14:47:02;1.63;;;1.27;;
55609;SDS011;41486;52.502;13.486;2022-11-06T14:49:41;2.20;;;1.70;;
55609;SDS011;41486;52.502;13.486;2022-11-06T14:52:15;5.05;;;2.03;;
55609;SDS011;41486;52.502;13.486;2022-11-06T14:54:48;4.85;;;1.67;;
55609;SDS011;41486;52.502;13.486;2022-11-06T14:57:32;1.92;;;1.30;;
55609;SDS011;41486;52.502;13.486;2022-11-06T15:00:10;2.97;;;1.42;;
55609;SDS011;41486;52.502;13.486;2022-11-06T15:05:42;1.95;;;1.55;;
55609;SDS011;41486;52.502;13.486;2022-11-06T15:14:54;5.65;;;1.67;;
55609;SDS011;41486;52.502;13.486;2022-11-06T15:17:30;2.97;;;1.63;;
55609;SDS011;41486;52.502;13.486;2022-11-06T15:25:44;2.35;;;1.50;;
55609;SDS011;41486;52.502;13.486;2022-11-06T15:28:17;4.82;;;1.65;;
55609;SDS011;41486;52.502;13.486;2022-11-06T15:30:53;3.80;;;2.00;;
55609;SDS011;41486;52.502;13.486;2022-11-06T15:33:29;2.38;;;1.30;;
55609;SDS011;41486;52.502;13.486;2022-11-06T15:36:01;3.42;;;1.95;;
55609;SDS011;41486;52.502;13.486;2022-11-06T15:38:38;2.33;;;1.30;;
55609;SDS011;41486;52.502;13.486;2022-11-06T15:41:10;5.18;;;1.50;;
55609;SDS011;41486;52.502;13.486;2022-11-06T15:43:42;3.13;;;1.98;;
55609;SDS011;41486;52.502;13.486;2022-11-06T15:46:20;3.05;;;1.83;;
55609;SDS011;41486;52.502;13.486;2022-11-06T15:49:13;2.95;;;1.70;;